Latest Coastal Weather Observations for Hamilton Island

IDQ60701

Issued at 11:12 am EST Wednesday 19 December 2018 (issued every 10 minutes, with the page automatically refreshed every 10 minutes)

About coastal observations | Map of coastal stations | Coastal observations for QLD | Marine services | Other Formats
Station Details ID: 033106 Name: HAMILTON ISLAND AIRPORT Lat: -20.37 Lon: 148.95 Height: 58.66 m
Data from the previous 72 hours. | See also: Recent months at Hamilton Island
Date/Time
EST
Wind Sea
Height
m
Swell Vis
km
Cloud Weather Temp
°C
Press
hPa
Rain since
9am
mm
Dir  Spd
kts
Gust
kts
Height
m
Period
s
Dir
19/11:00am SE 14 19 - - - - 10 Partly cloudy - 27.5 1009.6 0.0
19/10:34am SE 17 20 - - - - 10 Partly cloudy - 27.5 1009.8 0.0
19/10:30am SE 17 20 - - - - 10 Partly cloudy - 27.8 1009.8 0.0
19/10:01am SE 20 25 - - - - 10 Partly cloudy - 26.3 1009.9 0.0
19/10:00am SE 19 25 - - - - 10 Partly cloudy - 26.4 1009.9 0.0
19/09:46am SE 18 23 - - - - 10 Partly cloudy - 26.3 1010.1 0.0
19/09:42am SE 18 22 - - - - 10 Partly cloudy - 26.1 1010.2 0.0
19/09:31am SE 17 23 - - - - 6 Partly cloudy - 25.9 1010.2 0.0
19/09:30am SE 17 23 - - - - 7 Partly cloudy - 25.8 1010.2 0.0
19/09:00am SSE 14 19 - - - - 10 Mostly cloudy - 27.0 1010.2 0.2
19/08:50am SSE 12 17 - - - - 10 Cloudy - 27.4 1010.3 0.2
19/08:30am SSE 16 19 - - - - 10 Cloudy - 26.9 1010.2 0.2
19/08:00am SSE 14 18 - - - - 10 Partly cloudy - 27.0 1009.9 0.2
19/07:30am SSE 14 19 - - - - 10 Partly cloudy - 27.1 1009.5 0.2
19/07:00am SSE 17 19 - - - - 10 Partly cloudy - 25.9 1009.1 0.2
19/06:30am SSE 13 17 - - - - 10 Partly cloudy - 26.1 1008.8 0.2
19/06:00am SSE 12 16 - - - - 10 Cloudy - 25.4 1008.3 0.2
19/05:30am SSE 11 15 - - - - 10 Partly cloudy - 25.7 1007.8 0.2
19/05:00am SSE 14 19 - - - - 10 Partly cloudy - 25.7 1007.4 0.2
19/04:30am SE 21 27 - - - - 10 Cloudy - 25.6 1006.9 0.2
19/04:22am SE 21 27 - - - - 10 Partly cloudy - 25.7 1006.7 0.2
19/04:21am SE 20 27 - - - - 10 Partly cloudy - 25.8 1006.7 0.2
19/04:00am SSE 14 17 - - - - 10 Cloudy - 26.3 1006.7 0.2
19/03:30am SSE 12 15 - - - - 10 Partly cloudy - 26.1 1006.3 0.2
19/03:13am SSE 12 16 - - - - 10 Partly cloudy - 25.8 1006.3 0.2
19/03:00am SSE 13 15 - - - - 10 Cloudy - 25.8 1006.3 0.2
19/02:30am SE 15 19 - - - - 10 Partly cloudy - 26.3 1006.2 0.2
19/02:00am SSE 13 16 - - - - 10 - - 26.0 1006.5 0.2
19/01:30am SE 14 17 - - - - 10 - - 26.0 1006.9 0.2
19/01:00am SE 16 18 - - - - 10 - - 26.2 1007.2 0.2
19/12:30am SE 14 17 - - - - 10 - - 26.3 1007.6 0.2
19/12:00am ESE 19 24 - - - - 10 - - 26.5 1007.8 0.2
 
Date/Time
EST
Wind Sea
Height
m
Swell Vis
km
Cloud Weather Temp
°C
Press
hPa
Rain since
9am
mm
Dir  Spd
kts
Gust
kts
Height
m
Period
s
Dir
18/11:30pm ESE 18 21 - - - - 10 - - 26.6 1008.2 0.2
18/11:00pm ESE 22 25 - - - - 10 - - 26.7 1008.4 0.2
18/10:30pm SE 18 20 - - - - 10 - - 26.8 1008.6 0.2
18/10:00pm SE 15 18 - - - - 10 - - 26.6 1008.6 0.2
18/09:30pm ESE 17 19 - - - - 10 - - 26.6 1008.5 0.2
18/09:00pm ESE 15 16 - - - - 10 - - 26.6 1008.3 0.2
18/08:30pm ESE 13 15 - - - - 10 Partly cloudy - 26.7 1008.1 0.2
18/08:00pm ESE 16 19 - - - - 10 Partly cloudy - 26.9 1007.7 0.2
18/07:30pm ESE 14 17 - - - - 10 Partly cloudy - 26.9 1007.4 0.2
18/07:00pm ESE 18 22 - - - - 10 Partly cloudy - 27.2 1006.9 0.2
18/06:30pm ESE 13 16 - - - - 10 - - 27.1 1006.6 0.2
18/06:00pm ESE 14 17 - - - - 10 - - 27.6 1006.1 0.2
18/05:30pm ESE 12 15 - - - - 10 - - 28.1 1005.7 0.2
18/05:00pm E 15 19 - - - - 10 - - 28.4 1005.4 0.2
18/04:30pm ESE 18 20 - - - - 10 - - 28.5 1005.2 0.2
18/04:00pm ESE 15 18 - - - - 10 - - 28.7 1005.1 0.2
18/03:30pm E 14 17 - - - - 10 - - 28.6 1005.1 0.2
18/03:00pm ESE 19 23 - - - - 10 - - 29.1 1005.1 0.2
18/02:30pm ESE 19 24 - - - - 10 - - 29.4 1005.1 0.2
18/02:00pm ESE 22 24 - - - - 10 - - 28.9 1005.3 0.2
18/01:30pm ESE 19 22 - - - - 10 - - 28.8 1005.8 0.2
18/01:00pm ESE 22 24 - - - - 10 - - 28.5 1006.1 0.2
18/12:30pm ESE 21 24 - - - - 10 - - 28.4 1006.5 0.2
18/12:00pm SE 18 21 - - - - 10 Partly cloudy - 27.9 1006.9 0.2
18/11:30am SE 17 21 - - - - 10 Cloudy - 28.0 1007.1 0.2
18/11:00am SE 14 18 - - - - 10 Cloudy - 27.8 1007.4 0.2
18/10:30am SE 12 15 - - - - 10 Cloudy - 27.9 1007.6 0.2
18/10:00am SE 12 18 - - - - 10 Cloudy - 27.0 1007.9 0.2
18/09:30am SE 15 19 - - - - 10 - - 27.0 1007.9 0.2
18/09:00am SE 20 23 - - - - 10 - - 27.3 1007.7 0.2
18/08:30am SE 20 23 - - - - 10 - - 27.1 1007.7 0.2
18/08:00am SE 23 27 - - - - 10 - - 27.1 1007.3 0.2
18/07:30am SE 21 27 - - - - 10 Partly cloudy - 26.6 1007.1 0.2
18/07:00am SE 20 24 - - - - 10 Partly cloudy - 25.9 1006.9 0.2
18/06:30am SSE 17 22 - - - - 10 Partly cloudy - 25.8 1006.7 0.2
18/06:00am SSE 17 21 - - - - 10 Partly cloudy - 25.9 1006.3 0.2
18/05:30am SE 22 25 - - - - 10 Partly cloudy - 25.9 1005.8 0.2
18/05:00am SE 21 24 - - - - 10 Partly cloudy - 25.8 1005.2 0.2
18/04:30am SE 15 18 - - - - 10 Partly cloudy - 26.0 1005.1 0.2
18/04:00am SSE 14 18 - - - - 10 Partly cloudy - 25.9 1005.1 0.2
18/03:30am SSE 13 17 - - - - 10 Partly cloudy - 25.9 1005.0 0.2
18/03:00am SSE 13 18 - - - - 10 Mostly clear - 26.0 1004.8 0.2
18/02:30am SSE 13 17 - - - - 10 Partly cloudy - 25.9 1004.7 0.2
18/02:00am SE 15 18 - - - - 10 Partly cloudy - 25.9 1004.8 0.2
18/01:30am SE 17 19 - - - - 10 Partly cloudy - 26.1 1004.9 0.2
18/01:00am SE 19 22 - - - - 10 - - 26.1 1004.8 0.2
18/12:30am SE 20 23 - - - - 10 - - 26.2 1004.9 0.2
18/12:00am SE 21 24 - - - - 10 - - 26.4 1004.9 0.2
 
Date/Time
EST
Wind Sea
Height
m
Swell Vis
km
Cloud Weather Temp
°C
Press
hPa
Rain since
9am
mm
Dir  Spd
kts
Gust
kts
Height
m
Period
s
Dir
17/11:30pm SE 17 20 - - - - 10 Partly cloudy - 26.3 1005.3 0.2
17/11:00pm SE 18 22 - - - - 10 Partly cloudy - 26.6 1005.6 0.2
17/10:30pm SE 16 18 - - - - 10 Cloudy - 26.8 1005.7 0.2
17/10:00pm ESE 13 15 - - - - 10 Partly cloudy - 27.2 1005.6 0.2
17/09:30pm SE 18 21 - - - - 10 Cloudy - 27.2 1005.4 0.2
17/09:00pm SE 15 18 - - - - 10 Cloudy - 27.2 1005.1 0.2
17/08:30pm SE 12 15 - - - - 10 Partly cloudy - 27.2 1004.9 0.2
17/08:00pm SE 8 11 - - - - 10 - - 27.0 1004.5 0.2
17/07:30pm E 11 15 - - - - 10 Partly cloudy - 26.9 1004.0 0.2
17/07:00pm E 5 7 - - - - 10 Partly cloudy - 27.9 1003.4 0.2
17/06:30pm SE 4 6 - - - - 10 - - 28.5 1002.8 0.2
17/06:00pm S 2 4 - - - - 10 Mostly cloudy - 29.8 1002.2 0.2
17/05:30pm CALM 0 0 - - - - 10 Cloudy - 28.5 1001.9 0.2
17/05:00pm SSW 3 4 - - - - 10 Cloudy - 28.2 1001.8 0.2
17/04:30pm SW 5 7 - - - - 10 Cloudy - 28.0 1001.5 0.2
17/04:00pm SW 6 9 - - - - 10 Cloudy - 28.1 1001.3 0.2
17/03:30pm SW 9 13 - - - - 10 Partly cloudy - 28.5 1001.3 0.2
17/03:00pm SW 14 17 - - - - 10 Cloudy - 27.9 1001.3 0.2
17/02:30pm WSW 11 17 - - - - 10 Cloudy - 27.4 1001.4 0.2
17/02:00pm WSW 14 18 - - - - 10 Partly cloudy - 27.1 1001.9 0.2
17/01:30pm WSW 14 18 - - - - 10 Partly cloudy - 26.5 1002.4 0.2
17/01:00pm WSW 15 20 - - - - 10 Partly cloudy - 25.9 1002.9 0.2
17/12:30pm WSW 10 15 - - - - 10 Partly cloudy - 26.0 1003.0 0.2
17/12:21pm WSW 8 11 - - - - 10 Partly cloudy - 25.8 1002.9 0.2
17/12:00pm WSW 9 12 - - - - 5 Cloudy Rain 25.7 1003.1 0.2
17/11:52am WSW 11 14 - - - - 6 Partly cloudy - 25.6 1003.1 0.0
17/11:30am WSW 14 18 - - - - 10 Cloudy - 26.5 1003.0 0.0
17/11:21am WSW 13 16 - - - - 10 Cloudy - 26.3 1003.0 0.0
17/11:04am W 12 15 - - - - 6 Cloudy - 26.1 1002.9 0.0
17/11:00am W 11 14 - - - - 10 Cloudy - 26.4 1003.0 0.0
17/10:30am W 11 14 - - - - 10 Cloudy - 27.0 1003.0 0.0
17/10:00am W 10 14 - - - - 10 Partly cloudy - 26.9 1003.0 0.0
17/09:30am W 9 13 - - - - 10 Partly cloudy - 27.0 1003.2 0.0
17/09:00am WSW 9 12 - - - - 10 Cloudy - 26.7 1003.1 36.0
17/08:30am WSW 11 16 - - - - 10 Cloudy - 26.4 1003.0 36.0
17/08:00am WSW 12 17 - - - - 10 Cloudy - 26.1 1002.7 36.0
17/07:30am SW 16 19 - - - - 10 Partly cloudy - 25.7 1002.5 36.0
17/07:00am SW 17 21 - - - - 10 Cloudy - 25.5 1002.3 36.0
17/06:30am SSW 15 23 - - - - 10 Cloudy - 25.2 1002.2 36.0
17/06:17am SW 15 25 - - - - 10 Cloudy - 25.1 1002.0 36.0
17/06:00am SW 14 24 - - - - 10 Mostly cloudy Recent precip. 24.8 1002.0 36.0
17/05:30am SSW 11 23 - - - - 10 Cloudy - 24.4 1001.8 36.0
17/05:27am SSW 11 23 - - - - 10 Cloudy - 24.3 1001.7 36.0
17/05:00am SSW 13 19 - - - - 10 Cloudy - 24.1 1001.5 35.8
17/04:30am S 13 19 - - - - 10 Cloudy - 23.7 1001.1 35.8
17/04:00am S 16 24 - - - - 10 Cloudy - 23.9 1000.7 35.8
17/03:30am S 18 24 - - - - 10 Cloudy - 23.8 1000.4 35.6
17/03:01am SSE 19 25 - - - - 10 Partly cloudy - 24.1 1000.3 35.6
17/03:00am SSE 19 25 - - - - 10 Cloudy - 24.0 1000.3 35.6
17/02:30am SSE 21 26 - - - - 10 Partly cloudy - 23.8 1000.2 35.6
17/02:04am SSE 23 33 - - - - 10 Partly cloudy - 23.8 1000.6 35.6
17/02:00am SSE 25 33 - - - - 10 Partly cloudy - 23.8 1000.7 35.6
17/01:41am SSE 24 32 - - - - 8 Partly cloudy - 23.5 1000.9 35.6
17/01:34am SSE 25 35 - - - - 7 Partly cloudy - 23.2 1001.1 35.4
17/01:33am SSE 26 35 - - - - 8 Partly cloudy - 23.2 1001.1 35.4
17/01:30am SSE 27 35 - - - - 7 Partly cloudy - 23.1 1001.1 35.4
17/01:16am S 27 37 - - - - 6 Partly cloudy - 23.2 1001.3 35.2
17/01:00am SSE 27 36 - - - - 6 Partly cloudy - 22.8 1001.4 34.8
17/12:57am SSE 27 38 - - - - 6 Partly cloudy - 22.8 1001.5 34.8
17/12:36am SSE 28 39 - - - - 8 Cloudy - 23.4 1001.6 34.4
17/12:30am SSE 27 39 - - - - 7 Cloudy - 23.4 1001.6 34.4
17/12:01am S 30 41 - - - - 4 Partly cloudy - 23.6 1001.9 33.8
17/12:00am S 31 41 - - - - 4 Cloudy Rain 23.4 1001.8 33.8
 
Date/Time
EST
Wind Sea
Height
m
Swell Vis
km
Cloud Weather Temp
°C
Press
hPa
Rain since
9am
mm
Dir  Spd
kts
Gust
kts
Height
m
Period
s
Dir
16/11:30pm S 31 39 - - - - 5 Cloudy - 23.9 1002.3 32.6
16/11:22pm S 25 38 - - - - 5 Cloudy - 23.8 1002.2 32.4
16/11:13pm S 28 37 - - - - 6 Cloudy - 24.2 1002.4 32.2
16/11:00pm S 29 37 - - - - 9 Cloudy - 24.0 1002.4 32.0
16/10:30pm SSE 27 37 - - - - 10 Cloudy - 24.5 1002.4 32.0
16/10:08pm SSE 32 43 - - - - 10 Cloudy - 25.0 1001.9 32.0
16/10:00pm SSE 32 39 - - - - 10 Partly cloudy - 25.1 1002.0 32.0
16/09:38pm SSE 23 33 - - - - 10 Partly cloudy - 25.5 1002.2 32.0
16/09:30pm SSE 20 30 - - - - 10 Cloudy - 25.3 1002.4 32.0
16/09:25pm SSE 20 30 - - - - 10 Cloudy - 25.2 1002.4 32.0
16/09:02pm S 20 27 - - - - 10 Partly cloudy - 25.1 1002.2 32.0
16/09:00pm S 20 26 - - - - 10 Cloudy - 25.2 1002.2 32.0
16/08:30pm SSE 21 26 - - - - 10 Partly cloudy - 25.2 1002.3 32.0
16/08:29pm SSE 21 26 - - - - 10 Partly cloudy - 25.1 1002.3 32.0
16/08:00pm SSE 19 23 - - - - 10 Partly cloudy - 24.9 1002.3 32.0
16/07:30pm SSE 19 21 - - - - 10 Partly cloudy - 24.7 1002.1 32.0
16/07:03pm SE 19 23 - - - - 10 Partly cloudy - 24.8 1001.9 32.0
16/07:00pm SE 20 23 - - - - 10 Partly cloudy - 24.6 1001.8 32.0
16/06:49pm SE 21 24 - - - - 5 Partly cloudy - 24.5 1001.7 31.8
16/06:30pm ESE 17 20 - - - - 2 Partly cloudy - 24.7 1001.7 30.4
16/06:03pm ESE 21 24 - - - - 6 Partly cloudy - 24.8 1001.3 24.6
16/06:00pm ESE 21 24 - - - - 9 Cloudy - 24.8 1001.3 24.6
16/05:49pm ESE 21 24 - - - - 10 Partly cloudy - 25.2 1001.3 24.6
16/05:30pm E 18 21 - - - - 10 Partly cloudy - 24.9 1001.0 24.6
16/05:05pm ENE 10 13 - - - - 10 Partly cloudy - 24.8 1000.7 24.6
16/05:00pm ENE 9 11 - - - - 9 Partly cloudy - 25.0 1000.6 24.6
16/04:51pm NE 11 16 - - - - 6 Partly cloudy - 25.0 1000.7 24.4
16/04:30pm NE 13 22 - - - - 4 Partly cloudy - 25.1 1000.5 22.6
16/04:25pm ENE 18 28 - - - - 3 Partly cloudy - 25.0 1000.4 22.2
16/04:00pm E 21 26 - - - - 3 Partly cloudy - 24.6 1000.4 19.0
16/03:54pm E 21 29 - - - - 6 Partly cloudy - 24.8 1000.4 17.4
16/03:30pm ESE 18 27 - - - - 10 Partly cloudy - 25.5 1000.7 16.0
16/03:18pm E 18 24 - - - - 8 Partly cloudy - 25.7 1001.0 15.6
16/03:11pm ESE 15 27 - - - - 9 Cloudy - 25.7 1000.9 15.4
16/03:00pm ESE 16 22 - - - - 5 Cloudy Rain 25.3 1001.2 15.2
16/02:30pm SE 16 18 - - - - 9 Cloudy - 25.8 1001.5 12.8
16/02:21pm SE 18 22 - - - - 6 Cloudy - 25.9 1001.7 12.8
16/02:18pm SE 19 22 - - - - 8 Partly cloudy - 25.8 1001.7 12.8
16/02:00pm E 14 19 - - - - 4 Partly cloudy - 25.8 1002.1 12.6
16/01:55pm E 10 19 - - - - 5 Partly cloudy - 25.9 1002.3 11.8
16/01:48pm E 12 21 - - - - 10 Partly cloudy - 25.9 1002.5 10.8
16/01:30pm SE 17 24 - - - - 3 Partly cloudy - 25.6 1002.4 10.4
16/01:00pm SE 17 21 - - - - 5 Partly cloudy - 25.6 1002.8 4.8
16/12:49pm SE 16 23 - - - - 6 Partly cloudy - 25.6 1002.9 3.8
16/12:47pm SE 15 21 - - - - 9 Partly cloudy - 25.7 1002.9 2.8
16/12:36pm SE 12 14 - - - - 5 Partly cloudy - 26.0 1003.3 2.4
16/12:30pm ESE 13 17 - - - - 3 Partly cloudy - 25.7 1003.6 2.2
16/12:16pm E 14 18 - - - - 7 Partly cloudy - 26.1 1003.8 0.4
16/12:10pm E 14 19 - - - - 6 Partly cloudy - 26.1 1003.9 0.2
16/12:00pm ESE 14 18 - - - - 10 Cloudy - 26.5 1004.0 0.0
16/11:57am ESE 14 18 - - - - 10 Partly cloudy - 26.4 1004.0 0.0
16/11:53am E 12 17 - - - - 10 Partly cloudy - 26.3 1003.9 0.0
16/11:42am ESE 12 16 - - - - 10 Partly cloudy - 26.2 1004.0 0.0
16/11:30am ESE 11 13 - - - - 10 Partly cloudy - 26.0 1004.5 0.0
16/11:20am ESE 11 14 - - - - 10 Partly cloudy - 26.0 1004.5 0.0

Other Formats:

Comma delimited format used in spreadsheet applications
http://www.bom.gov.au/fwo/IDQ60701/IDQ60701.94368.axf

JavaScript Object Notation format (JSON) in row-major order
http://www.bom.gov.au/fwo/IDQ60701/IDQ60701.94368.json